createdAt,value
2023-02-05T00:01:32.288Z,13.45
2023-02-05T00:04:04.476Z,12.68
2023-02-05T00:06:34.480Z,12.68
2023-02-05T00:09:04.390Z,13.00
2023-02-05T00:11:37.943Z,13.10
2023-02-05T00:14:06.804Z,12.93
2023-02-05T00:16:36.343Z,13.88
2023-02-05T00:19:22.978Z,14.70
2023-02-05T00:22:02.433Z,14.80
2023-02-05T00:24:50.034Z,14.63
2023-02-05T00:27:37.697Z,12.85
2023-02-05T00:30:06.556Z,13.40
2023-02-05T00:32:46.312Z,13.60
2023-02-05T00:35:14.923Z,13.30
2023-02-05T00:37:43.991Z,12.48
2023-02-05T00:40:31.621Z,11.98
2023-02-05T00:43:21.460Z,12.75
2023-02-05T00:46:14.415Z,11.93
2023-02-05T00:49:02.108Z,11.43
2023-02-05T00:51:33.047Z,12.13
2023-02-05T00:54:02.229Z,11.93
2023-02-05T00:56:33.982Z,10.88
2023-02-05T00:59:02.708Z,11.98
2023-02-05T01:01:37.949Z,11.57
2023-02-05T01:04:10.301Z,9.40
2023-02-05T01:06:41.593Z,9.70
2023-02-05T01:09:13.720Z,9.68
2023-02-05T01:11:42.715Z,10.73
2023-02-05T01:14:14.152Z,11.07
2023-02-05T01:16:42.874Z,11.98
2023-02-05T01:19:16.386Z,12.13
2023-02-05T01:21:45.250Z,11.30
2023-02-05T01:24:25.533Z,11.18
2023-02-05T01:27:15.657Z,11.90
2023-02-05T01:30:03.989Z,11.50
2023-02-05T01:32:52.891Z,15.73
2023-02-05T01:38:15.584Z,10.90
2023-02-05T01:41:03.420Z,12.10
2023-02-05T01:44:12.204Z,12.55
2023-02-05T01:47:02.309Z,12.15
2023-02-05T01:49:33.823Z,11.82
2023-02-05T01:52:08.058Z,18.08
2023-02-05T01:54:38.914Z,16.60
2023-02-05T01:57:28.003Z,22.67
2023-02-05T02:00:09.770Z,20.88
2023-02-05T02:03:03.629Z,15.30
2023-02-05T02:05:43.741Z,12.65
2023-02-05T02:08:19.400Z,14.80
2023-02-05T02:10:53.672Z,16.70
2023-02-05T02:13:42.292Z,16.33
2023-02-05T02:16:29.954Z,13.30
2023-02-05T02:19:01.330Z,13.43
2023-02-05T02:21:41.361Z,13.55
2023-02-05T02:24:14.477Z,19.75
2023-02-05T02:26:54.624Z,23.30
2023-02-05T02:29:31.919Z,18.20
2023-02-05T02:32:03.092Z,17.45
2023-02-05T02:34:46.591Z,16.33
2023-02-05T02:37:34.358Z,17.52
2023-02-05T02:40:26.150Z,17.45
2023-02-05T02:43:02.873Z,13.95
2023-02-05T02:45:36.243Z,14.50
2023-02-05T02:48:08.196Z,14.02
2023-02-05T02:50:43.396Z,14.38
2023-02-05T02:53:19.791Z,14.15
2023-02-05T02:55:50.248Z,13.52
2023-02-05T02:58:36.605Z,14.75
2023-02-05T03:01:12.482Z,13.52
2023-02-05T03:04:00.316Z,15.48
2023-02-05T03:06:40.892Z,14.05
2023-02-05T03:09:38.362Z,13.77
2023-02-05T03:12:23.217Z,14.60
2023-02-05T03:14:57.472Z,14.43
2023-02-05T03:17:28.262Z,13.95
2023-02-05T03:20:08.939Z,14.07
2023-02-05T03:22:57.355Z,14.10
2023-02-05T03:25:41.698Z,14.93
2023-02-05T03:28:24.558Z,14.20
2023-02-05T03:31:24.423Z,16.58
2023-02-05T03:34:14.997Z,14.77
2023-02-05T03:37:14.763Z,14.10
2023-02-05T03:39:49.224Z,15.00
2023-02-05T03:42:32.608Z,16.45
2023-02-05T03:45:27.585Z,13.40
2023-02-05T03:48:15.528Z,16.08
2023-02-05T03:50:56.736Z,14.65
2023-02-05T03:53:32.842Z,14.43
2023-02-05T03:56:06.520Z,14.48
2023-02-05T03:58:39.519Z,14.15
2023-02-05T04:01:09.883Z,13.73
2023-02-05T04:03:47.184Z,14.55
2023-02-05T04:06:28.494Z,14.30
2023-02-05T04:09:12.531Z,14.57
2023-02-05T04:12:00.576Z,14.55
2023-02-05T04:14:48.691Z,15.15
2023-02-05T04:17:35.682Z,14.27
2023-02-05T04:20:20.014Z,15.77
2023-02-05T04:23:03.972Z,16.70
2023-02-05T04:25:53.898Z,16.02
2023-02-05T04:28:44.021Z,16.55
2023-02-05T04:31:30.610Z,17.48
2023-02-05T04:34:17.054Z,17.55
2023-02-05T04:37:04.792Z,21.10
2023-02-05T04:39:52.249Z,23.77
2023-02-05T04:42:37.809Z,24.23
2023-02-05T04:45:23.888Z,26.40
2023-02-05T04:48:16.327Z,26.67
2023-02-05T04:51:13.856Z,29.10
2023-02-05T04:53:52.950Z,28.85
2023-02-05T04:56:35.717Z,29.35
2023-02-05T04:59:20.706Z,30.13
2023-02-05T05:02:08.548Z,29.52
2023-02-05T05:04:56.447Z,29.00
2023-02-05T05:07:36.557Z,28.83
2023-02-05T05:10:24.252Z,27.42
2023-02-05T05:13:11.843Z,29.90
2023-02-05T05:15:57.752Z,28.73
2023-02-05T05:18:45.312Z,27.58
2023-02-05T05:21:37.498Z,28.45
2023-02-05T05:24:22.149Z,27.60
2023-02-05T05:27:08.297Z,27.42
2023-02-05T05:29:55.851Z,27.08
2023-02-05T05:32:43.356Z,28.73
2023-02-05T05:35:26.349Z,28.95
2023-02-05T05:38:12.754Z,28.13
2023-02-05T05:41:17.924Z,28.65
2023-02-05T05:44:07.127Z,31.25
2023-02-05T05:46:54.669Z,30.08
2023-02-05T05:49:30.135Z,29.63
2023-02-05T05:52:12.626Z,29.00
2023-02-05T05:54:52.196Z,32.92
2023-02-05T05:57:30.045Z,28.60
2023-02-05T06:00:17.696Z,31.45
2023-02-05T06:03:03.024Z,28.95
2023-02-05T06:05:49.893Z,30.83
2023-02-05T06:08:37.500Z,32.75
2023-02-05T06:11:20.824Z,33.05
2023-02-05T06:14:04.584Z,33.88
2023-02-05T06:16:55.163Z,35.38
2023-02-05T06:19:32.699Z,33.97
2023-02-05T06:22:15.252Z,32.40
2023-02-05T06:24:57.024Z,34.17
2023-02-05T06:27:38.227Z,34.42
2023-02-05T06:30:27.856Z,35.83
2023-02-05T06:33:17.960Z,33.50
2023-02-05T06:36:05.689Z,34.15
2023-02-05T06:38:51.668Z,35.83
2023-02-05T06:41:39.168Z,35.28
2023-02-05T06:44:29.409Z,34.13
2023-02-05T06:47:16.012Z,35.53
2023-02-05T06:50:03.627Z,34.63
2023-02-05T06:52:53.589Z,36.33
2023-02-05T06:55:43.354Z,35.78
2023-02-05T06:58:26.946Z,35.92
2023-02-05T07:01:13.290Z,36.45
2023-02-05T07:04:00.825Z,35.95
2023-02-05T07:06:48.359Z,34.13
2023-02-05T07:09:36.089Z,34.70
2023-02-05T07:15:07.544Z,32.67
2023-02-05T07:17:58.260Z,33.95
2023-02-05T07:20:44.500Z,31.77
2023-02-05T07:23:27.154Z,30.88
2023-02-05T07:26:11.384Z,30.13
2023-02-05T07:28:55.805Z,30.35
2023-02-05T07:31:43.554Z,31.27
2023-02-05T07:34:33.719Z,28.42
2023-02-05T07:37:23.647Z,28.40
2023-02-05T07:40:11.399Z,26.60
2023-02-05T07:42:59.011Z,26.63
2023-02-05T07:45:40.130Z,23.52
2023-02-05T07:48:21.442Z,23.50
2023-02-05T07:51:00.130Z,22.48
2023-02-05T07:53:39.296Z,23.58
2023-02-05T07:56:21.583Z,21.67
2023-02-05T07:59:09.763Z,19.63
2023-02-05T08:01:53.461Z,20.10
2023-02-05T08:04:41.097Z,19.52
2023-02-05T08:07:28.655Z,18.50
2023-02-05T08:10:05.258Z,19.75
2023-02-05T08:12:55.534Z,18.95
2023-02-05T08:15:40.615Z,18.77
2023-02-05T08:18:28.296Z,17.80
2023-02-05T08:21:15.902Z,18.35
2023-02-05T08:24:04.558Z,19.02
2023-02-05T08:26:47.212Z,18.67
2023-02-05T08:32:08.322Z,13.38
2023-02-05T08:34:53.009Z,16.60
2023-02-05T08:37:33.431Z,11.15
2023-02-05T08:40:15.567Z,10.27
2023-02-05T08:43:02.769Z,11.68
2023-02-05T08:45:48.799Z,10.05
2023-02-05T08:48:36.479Z,7.53
2023-02-05T08:51:13.817Z,5.32
2023-02-05T08:53:44.714Z,3.72
2023-02-05T08:56:18.691Z,2.53
2023-02-05T08:58:48.429Z,2.95
2023-02-05T09:01:18.120Z,2.03
2023-02-05T09:03:59.673Z,1.45
2023-02-05T09:06:34.110Z,1.52
2023-02-05T09:09:21.864Z,2.03
2023-02-05T09:12:02.493Z,1.88
2023-02-05T09:14:46.078Z,1.77
2023-02-05T09:17:27.437Z,1.88
2023-02-05T09:20:11.423Z,2.65
2023-02-05T09:22:58.941Z,3.03
2023-02-05T09:25:34.271Z,2.17
2023-02-05T09:28:10.462Z,2.10
2023-02-05T09:30:40.976Z,2.70
2023-02-05T09:33:28.656Z,2.40
2023-02-05T09:36:05.560Z,1.88
2023-02-05T09:38:35.749Z,1.50
2023-02-05T09:41:16.838Z,1.55
2023-02-05T09:43:57.482Z,1.17
2023-02-05T09:46:28.971Z,1.60
2023-02-05T09:49:04.249Z,1.27
2023-02-05T09:51:39.853Z,2.10
2023-02-05T09:54:28.475Z,3.17
2023-02-05T09:57:08.329Z,1.83
2023-02-05T09:59:50.575Z,4.20
2023-02-05T10:02:32.337Z,3.95
2023-02-05T10:05:22.280Z,4.50
2023-02-05T10:08:15.463Z,5.35
2023-02-05T10:10:51.047Z,6.78
2023-02-05T10:13:38.899Z,7.35
2023-02-05T10:16:12.335Z,6.75
2023-02-05T10:18:46.425Z,6.35
2023-02-05T10:21:33.247Z,5.53
2023-02-05T10:24:01.218Z,5.68
2023-02-05T10:26:43.669Z,5.45
2023-02-05T10:29:22.606Z,4.95
2023-02-05T10:31:54.368Z,3.92
2023-02-05T10:34:25.741Z,3.15
2023-02-05T10:36:54.979Z,4.00
2023-02-05T10:39:29.806Z,5.05
2023-02-05T10:42:08.485Z,3.97
2023-02-05T10:44:57.373Z,5.85
2023-02-05T10:47:40.648Z,3.78
2023-02-05T10:50:43.959Z,3.95
2023-02-05T10:53:18.093Z,4.80
2023-02-05T10:56:00.125Z,4.18
2023-02-05T10:58:56.641Z,3.65
2023-02-05T11:01:45.510Z,3.35
2023-02-05T11:04:34.273Z,3.47
2023-02-05T11:07:12.399Z,4.00
2023-02-05T11:09:46.172Z,2.72
2023-02-05T11:12:33.843Z,3.58
2023-02-05T11:15:03.654Z,3.00
2023-02-05T11:17:37.140Z,1.90
2023-02-05T11:20:05.415Z,2.17
2023-02-05T11:22:46.446Z,2.83
2023-02-05T11:25:15.271Z,1.58
2023-02-05T11:27:51.138Z,2.20
2023-02-05T11:30:47.624Z,1.33
2023-02-05T11:33:28.247Z,1.70
2023-02-05T11:35:58.900Z,1.90
2023-02-05T11:38:35.654Z,2.03
2023-02-05T11:41:07.734Z,4.57
2023-02-05T11:43:38.486Z,1.98
2023-02-05T11:46:11.040Z,1.85
2023-02-05T11:48:41.241Z,2.00
2023-02-05T11:51:16.611Z,2.00
2023-02-05T11:54:05.692Z,1.77
2023-02-05T11:57:00.321Z,2.13
2023-02-05T11:59:31.106Z,1.50
2023-02-05T12:02:29.287Z,2.53
2023-02-05T12:05:10.484Z,1.90
2023-02-05T12:08:04.002Z,1.73
2023-02-05T12:10:48.393Z,1.52
2023-02-05T12:13:24.001Z,1.70
2023-02-05T12:15:54.907Z,1.58
2023-02-05T12:18:29.800Z,1.27
2023-02-05T12:21:10.150Z,1.65
2023-02-05T12:23:43.868Z,1.98
2023-02-05T12:26:33.324Z,1.67
2023-02-05T12:29:12.843Z,1.10
2023-02-05T12:31:59.745Z,1.30
2023-02-05T12:34:46.433Z,1.65
2023-02-05T12:37:18.016Z,1.15
2023-02-05T12:39:53.490Z,1.50
2023-02-05T12:42:29.954Z,1.73
2023-02-05T12:45:08.652Z,1.45
2023-02-05T12:47:49.234Z,1.65
2023-02-05T12:50:30.476Z,1.20
2023-02-05T12:52:58.545Z,1.35
2023-02-05T12:55:49.848Z,1.10
2023-02-05T12:58:22.923Z,1.70
2023-02-05T13:00:55.498Z,1.77
2023-02-05T13:04:02.734Z,1.50
2023-02-05T13:06:36.162Z,1.20
2023-02-05T13:09:07.601Z,1.42
2023-02-05T13:11:40.171Z,1.65
2023-02-05T13:14:14.134Z,1.52
2023-02-05T13:16:45.186Z,2.08
2023-02-05T13:19:20.245Z,6.88
2023-02-05T13:22:14.642Z,1.90
2023-02-05T13:30:54.619Z,1.23
2023-02-05T13:33:25.154Z,1.70
2023-02-05T13:36:03.705Z,1.75
2023-02-05T13:38:36.543Z,1.13
2023-02-05T13:41:06.023Z,0.85
2023-02-05T13:43:47.489Z,1.30
2023-02-05T13:46:18.184Z,0.90
2023-02-05T13:48:46.103Z,1.05
2023-02-05T13:51:23.008Z,1.05
2023-02-05T13:54:02.511Z,0.90
2023-02-05T13:56:36.043Z,1.10
2023-02-05T13:59:13.413Z,1.33
2023-02-05T14:01:50.765Z,0.95
2023-02-05T14:04:37.173Z,0.98
2023-02-05T14:07:25.502Z,0.93
2023-02-05T14:09:59.675Z,3.28
2023-02-05T14:12:34.914Z,1.60
2023-02-05T14:15:19.613Z,0.90
2023-02-05T14:17:48.644Z,0.90
2023-02-05T14:20:26.163Z,1.48
2023-02-05T14:23:01.020Z,1.30
2023-02-05T14:25:36.923Z,0.90
2023-02-05T14:28:18.980Z,1.27
2023-02-05T14:30:49.756Z,2.78
2023-02-05T14:33:36.613Z,1.42
2023-02-05T14:36:16.846Z,1.80
2023-02-05T14:38:46.676Z,1.30
2023-02-05T14:41:25.952Z,1.63
2023-02-05T14:43:55.050Z,1.23
2023-02-05T14:46:23.398Z,1.42
2023-02-05T14:48:57.028Z,1.17
2023-02-05T14:51:32.249Z,0.98
2023-02-05T14:54:17.670Z,1.17
2023-02-05T14:56:52.324Z,2.22
2023-02-05T14:59:20.610Z,1.45
2023-02-05T15:01:54.403Z,1.48
2023-02-05T15:04:29.627Z,1.23
2023-02-05T15:07:09.888Z,1.33
2023-02-05T15:09:41.283Z,1.15
2023-02-05T15:12:32.639Z,1.42
2023-02-05T15:15:27.750Z,1.52
2023-02-05T15:18:13.403Z,1.52
2023-02-05T15:20:43.080Z,1.45
2023-02-05T15:23:19.472Z,1.13
2023-02-05T15:25:55.544Z,1.77
2023-02-05T15:28:29.516Z,1.92
2023-02-05T15:31:07.633Z,2.17
2023-02-05T15:33:56.307Z,2.58
2023-02-05T15:36:36.129Z,2.03
2023-02-05T15:39:16.774Z,1.77
2023-02-05T15:41:46.446Z,2.03
2023-02-05T15:44:21.619Z,2.60
2023-02-05T15:49:32.032Z,1.90
2023-02-05T15:52:03.085Z,1.67
2023-02-05T15:54:39.488Z,1.50
2023-02-05T15:57:21.235Z,2.05
2023-02-05T15:59:54.277Z,2.13
2023-02-05T16:02:28.742Z,2.17
2023-02-05T16:05:19.598Z,3.00
2023-02-05T16:07:55.477Z,2.25
2023-02-05T16:10:23.886Z,2.00
2023-02-05T16:12:58.701Z,2.67
2023-02-05T16:15:32.004Z,1.80
2023-02-05T16:18:04.865Z,1.80
2023-02-05T16:20:36.614Z,1.95
2023-02-05T16:23:06.711Z,2.75
2023-02-05T16:25:42.670Z,2.25
2023-02-05T16:28:16.788Z,2.92
2023-02-05T16:30:46.278Z,2.55
2023-02-05T16:33:18.897Z,2.97
2023-02-05T16:35:49.241Z,2.13
2023-02-05T16:38:31.847Z,1.90
2023-02-05T16:41:25.100Z,2.22
2023-02-05T16:44:03.732Z,2.78
2023-02-05T16:46:39.688Z,3.17
2023-02-05T16:49:23.845Z,2.85
2023-02-05T16:51:56.462Z,5.35
2023-02-05T16:54:38.666Z,5.13
2023-02-05T16:57:12.722Z,2.67
2023-02-05T16:59:56.562Z,1.98
2023-02-05T17:02:41.677Z,2.28
2023-02-05T17:05:23.511Z,3.47
2023-02-05T17:08:13.718Z,2.58
2023-02-05T17:10:57.679Z,2.15
2023-02-05T17:13:43.300Z,2.47
2023-02-05T17:16:32.471Z,2.35
2023-02-05T17:19:07.533Z,2.20
2023-02-05T17:21:37.101Z,2.50
2023-02-05T17:24:09.306Z,3.65
2023-02-05T17:26:42.797Z,2.53
2023-02-05T17:31:41.871Z,2.33
2023-02-05T17:34:11.196Z,2.63
2023-02-05T17:36:39.551Z,2.40
2023-02-05T17:39:08.562Z,4.45
2023-02-05T17:41:58.858Z,4.00
2023-02-05T17:44:46.457Z,3.45
2023-02-05T17:47:17.497Z,2.30
2023-02-05T17:49:46.655Z,2.70
2023-02-05T17:52:17.092Z,2.30
2023-02-05T17:54:46.462Z,2.35
2023-02-05T17:57:17.045Z,4.00
2023-02-05T17:59:45.625Z,2.80
2023-02-05T18:02:18.035Z,3.65
2023-02-05T18:04:49.781Z,4.20
2023-02-05T18:07:32.135Z,3.33
2023-02-05T18:10:08.413Z,2.65
2023-02-05T18:12:42.842Z,3.00
2023-02-05T18:15:12.419Z,3.22
2023-02-05T18:17:46.191Z,2.72
2023-02-05T18:20:15.528Z,3.17
2023-02-05T18:22:46.596Z,2.97
2023-02-05T18:25:34.218Z,3.17
2023-02-05T18:28:21.844Z,2.85
2023-02-05T18:31:08.324Z,3.92
2023-02-05T18:33:56.000Z,2.17
2023-02-05T18:36:41.026Z,3.40
2023-02-05T18:39:29.573Z,2.45
2023-02-05T18:42:16.292Z,1.90
2023-02-05T18:45:04.507Z,3.53
2023-02-05T18:47:43.240Z,2.25
2023-02-05T18:50:11.767Z,3.30
2023-02-05T18:52:43.574Z,2.90
2023-02-05T18:55:14.747Z,2.80
2023-02-05T18:57:45.098Z,5.90
2023-02-05T19:00:16.018Z,5.47
2023-02-05T19:03:03.683Z,2.67
2023-02-05T19:05:35.777Z,2.38
2023-02-05T19:08:23.522Z,2.45
2023-02-05T19:11:15.820Z,3.40
2023-02-05T19:14:05.365Z,2.67
2023-02-05T19:16:53.732Z,2.55
2023-02-05T19:19:41.400Z,3.03
2023-02-05T19:22:10.052Z,4.75
2023-02-05T19:24:40.380Z,3.90
2023-02-05T19:27:09.821Z,2.65
2023-02-05T19:29:40.870Z,4.15
2023-02-05T19:32:09.713Z,3.47
2023-02-05T19:34:40.108Z,3.85
2023-02-05T19:37:12.325Z,3.13
2023-02-05T19:39:41.363Z,2.65
2023-02-05T19:42:13.722Z,3.83
2023-02-05T19:44:45.537Z,2.58
2023-02-05T19:47:15.858Z,4.35
2023-02-05T19:50:03.490Z,2.83
2023-02-05T19:52:53.418Z,2.17
2023-02-05T19:55:37.510Z,2.42
2023-02-05T19:58:12.689Z,2.88
2023-02-05T20:00:54.547Z,4.85
2023-02-05T20:03:42.403Z,2.92
2023-02-05T20:06:30.145Z,3.05
2023-02-05T20:09:10.203Z,2.55
2023-02-05T20:11:42.310Z,2.88
2023-02-05T20:14:11.349Z,3.20
2023-02-05T20:16:41.443Z,2.75
2023-02-05T20:19:12.694Z,2.88
2023-02-05T20:21:46.182Z,3.15
2023-02-05T20:24:16.212Z,3.92
2023-02-05T20:26:48.817Z,3.80
2023-02-05T20:29:38.050Z,2.83
2023-02-05T20:32:13.843Z,3.92
2023-02-05T20:34:47.606Z,3.00
2023-02-05T20:37:17.434Z,3.00
2023-02-05T20:39:49.417Z,4.15
2023-02-05T20:42:20.816Z,4.63
2023-02-05T20:44:49.731Z,4.70
2023-02-05T20:47:19.102Z,3.95
2023-02-05T20:49:48.792Z,3.70
2023-02-05T20:52:21.343Z,3.00
2023-02-05T20:54:49.984Z,2.97
2023-02-05T20:57:20.500Z,4.55
2023-02-05T20:59:49.752Z,3.20
2023-02-05T21:02:19.462Z,3.70
2023-02-05T21:05:09.791Z,4.03
2023-02-05T21:07:55.543Z,3.38
2023-02-05T21:10:44.322Z,3.45
2023-02-05T21:13:30.942Z,3.00
2023-02-05T21:16:10.260Z,3.67
2023-02-05T21:18:44.642Z,3.80
2023-02-05T21:21:25.424Z,3.40
2023-02-05T21:24:02.428Z,2.95
2023-02-05T21:26:33.959Z,3.15
2023-02-05T21:29:05.525Z,4.43
2023-02-05T21:31:39.214Z,3.90
2023-02-05T21:34:10.342Z,3.95
2023-02-05T21:36:39.641Z,3.13
2023-02-05T21:39:11.928Z,3.53
2023-02-05T21:41:41.669Z,2.80
2023-02-05T21:44:12.088Z,4.68
2023-02-05T21:46:42.348Z,3.90
2023-02-05T21:49:13.075Z,3.22
2023-02-05T21:51:42.924Z,3.45
2023-02-05T21:54:11.894Z,3.90
2023-02-05T21:56:45.327Z,3.17
2023-02-05T21:59:13.709Z,4.10
2023-02-05T22:01:43.954Z,2.80
2023-02-05T22:04:16.233Z,3.67
2023-02-05T22:06:47.133Z,3.90
2023-02-05T22:09:18.416Z,3.20
2023-02-05T22:11:51.042Z,3.10
2023-02-05T22:14:21.996Z,4.25
2023-02-05T22:16:55.130Z,3.30
2023-02-05T22:19:43.196Z,3.45
2023-02-05T22:22:35.836Z,3.90
2023-02-05T22:25:08.015Z,2.40
2023-02-05T22:27:46.591Z,3.42
2023-02-05T22:30:19.432Z,3.13
2023-02-05T22:33:07.110Z,3.40
2023-02-05T22:35:37.543Z,3.10
2023-02-05T22:38:09.303Z,4.15
2023-02-05T22:40:43.103Z,3.10
2023-02-05T22:43:30.609Z,3.25
2023-02-05T22:46:08.940Z,3.50
2023-02-05T22:48:50.824Z,4.97
2023-02-05T22:51:20.944Z,3.22
2023-02-05T22:53:52.698Z,2.85
2023-02-05T22:56:22.620Z,3.50
2023-02-05T22:58:53.000Z,3.28
2023-02-05T23:01:27.928Z,3.33
2023-02-05T23:04:05.405Z,2.75
2023-02-05T23:06:50.370Z,3.60
2023-02-05T23:09:29.868Z,3.67
2023-02-05T23:11:58.552Z,3.20
2023-02-05T23:14:27.153Z,3.63
2023-02-05T23:17:00.006Z,3.65
2023-02-05T23:19:30.830Z,4.40
2023-02-05T23:22:01.710Z,4.07
2023-02-05T23:24:32.866Z,4.32
2023-02-05T23:27:06.610Z,4.18
2023-02-05T23:29:36.898Z,4.47
2023-02-05T23:32:07.029Z,3.90
2023-02-05T23:34:35.654Z,3.83
2023-02-05T23:37:07.110Z,3.50
2023-02-05T23:39:35.453Z,4.40
2023-02-05T23:42:06.624Z,3.92
2023-02-05T23:44:54.159Z,4.60
2023-02-05T23:47:33.118Z,3.67
2023-02-05T23:50:11.273Z,3.65
2023-02-05T23:52:48.843Z,3.92
2023-02-05T23:55:19.715Z,3.97
2023-02-05T23:57:49.335Z,3.67
